sensor_id;sensor_type;location;lat;lon;timestamp;pressure;altitude;pressure_sealevel;temperature;humidity
74798;BME280;63326;45.088;7.658;2024-01-27T00:00:28;99770.69;;;-0.53;100.00
74798;BME280;63326;45.088;7.658;2024-01-27T00:02:55;99771.94;;;-0.45;100.00
74798;BME280;63326;45.088;7.658;2024-01-27T00:05:21;99768.06;;;-0.39;100.00
74798;BME280;63326;45.088;7.658;2024-01-27T00:07:48;99783.44;;;-0.31;100.00
74798;BME280;63326;45.088;7.658;2024-01-27T00:10:15;99732.63;;;-0.63;100.00
74798;BME280;63326;45.088;7.658;2024-01-27T00:12:42;99750.97;;;-0.62;100.00
74798;BME280;63326;45.088;7.658;2024-01-27T00:15:09;99754.84;;;-0.67;100.00
74798;BME280;63326;45.088;7.658;2024-01-27T00:17:37;99803.75;;;-0.18;100.00
74798;BME280;63326;45.088;7.658;2024-01-27T00:20:04;99770.38;;;-0.63;100.00
74798;BME280;63326;45.088;7.658;2024-01-27T00:22:32;99800.47;;;-0.51;100.00
74798;BME280;63326;45.088;7.658;2024-01-27T00:24:58;99729.72;;;-0.59;100.00
74798;BME280;63326;45.088;7.658;2024-01-27T00:27:25;99809.88;;;-0.17;100.00
74798;BME280;63326;45.088;7.658;2024-01-27T00:29:52;99803.75;;;-0.18;100.00
74798;BME280;63326;45.088;7.658;2024-01-27T00:32:19;99789.69;;;-0.32;100.00
74798;BME280;63326;45.088;7.658;2024-01-27T00:34:46;99801.63;;;-0.41;100.00
74798;BME280;63326;45.088;7.658;2024-01-27T00:37:13;99808.03;;;-0.45;100.00
74798;BME280;63326;45.088;7.658;2024-01-27T00:39:40;99764.63;;;-0.69;100.00
74798;BME280;63326;45.088;7.658;2024-01-27T00:42:07;99795.69;;;-0.45;100.00
74798;BME280;63326;45.088;7.658;2024-01-27T00:44:35;99813.34;;;-0.31;100.00
74798;BME280;63326;45.088;7.658;2024-01-27T00:47:04;99798.22;;;-0.57;100.00
74798;BME280;63326;45.088;7.658;2024-01-27T00:49:30;99790.94;;;-0.68;100.00
74798;BME280;63326;45.088;7.658;2024-01-27T00:51:59;99800.69;;;-0.70;100.00
74798;BME280;63326;45.088;7.658;2024-01-27T00:54:26;99823.47;;;-0.53;100.00
74798;BME280;63326;45.088;7.658;2024-01-27T00:56:53;99811.19;;;-0.68;100.00
74798;BME280;63326;45.088;7.658;2024-01-27T00:59:20;99830.00;;;-0.75;100.00
74798;BME280;63326;45.088;7.658;2024-01-27T01:01:47;99806.13;;;-0.87;100.00
74798;BME280;63326;45.088;7.658;2024-01-27T01:04:15;99837.00;;;-0.59;100.00
74798;BME280;63326;45.088;7.658;2024-01-27T01:06:44;99820.91;;;-0.55;100.00
74798;BME280;63326;45.088;7.658;2024-01-27T01:09:11;99804.56;;;-0.76;100.00
74798;BME280;63326;45.088;7.658;2024-01-27T01:11:38;99814.69;;;-0.84;100.00
74798;BME280;63326;45.088;7.658;2024-01-27T01:14:06;99833.03;;;-0.66;100.00
74798;BME280;63326;45.088;7.658;2024-01-27T01:16:33;99837.06;;;-0.45;100.00
74798;BME280;63326;45.088;7.658;2024-01-27T01:19:02;99837.69;;;-0.56;100.00
74798;BME280;63326;45.088;7.658;2024-01-27T01:21:29;99838.53;;;-0.55;100.00
74798;BME280;63326;45.088;7.658;2024-01-27T01:24:01;99843.06;;;-0.57;100.00
74798;BME280;63326;45.088;7.658;2024-01-27T01:26:28;99836.09;;;-0.58;100.00
74798;BME280;63326;45.088;7.658;2024-01-27T01:28:55;99828.88;;;-0.71;100.00
74798;BME280;63326;45.088;7.658;2024-01-27T01:31:22;99849.22;;;-0.73;100.00
74798;BME280;63326;45.088;7.658;2024-01-27T01:33:49;99853.31;;;-0.83;100.00
74798;BME280;63326;45.088;7.658;2024-01-27T01:36:17;99829.38;;;-1.10;100.00
74798;BME280;63326;45.088;7.658;2024-01-27T01:38:44;99853.84;;;-1.08;100.00
74798;BME280;63326;45.088;7.658;2024-01-27T01:41:14;99847.81;;;-0.94;100.00
74798;BME280;63326;45.088;7.658;2024-01-27T01:43:43;99838.75;;;-0.90;100.00
74798;BME280;63326;45.088;7.658;2024-01-27T01:46:10;99824.72;;;-0.90;100.00
74798;BME280;63326;45.088;7.658;2024-01-27T01:48:40;99847.72;;;-0.92;100.00
74798;BME280;63326;45.088;7.658;2024-01-27T01:51:08;99805.75;;;-1.27;100.00
74798;BME280;63326;45.088;7.658;2024-01-27T01:53:35;99852.97;;;-0.92;100.00
74798;BME280;63326;45.088;7.658;2024-01-27T01:56:06;99842.56;;;-0.80;100.00
74798;BME280;63326;45.088;7.658;2024-01-27T01:58:35;99830.59;;;-0.85;100.00
74798;BME280;63326;45.088;7.658;2024-01-27T02:01:02;99845.16;;;-0.78;100.00
74798;BME280;63326;45.088;7.658;2024-01-27T02:03:30;99843.47;;;-0.79;100.00
74798;BME280;63326;45.088;7.658;2024-01-27T02:05:58;99858.50;;;-0.81;100.00
74798;BME280;63326;45.088;7.658;2024-01-27T02:08:25;99818.97;;;-0.97;100.00
74798;BME280;63326;45.088;7.658;2024-01-27T02:10:52;99838.44;;;-0.84;100.00
74798;BME280;63326;45.088;7.658;2024-01-27T02:13:22;99853.72;;;-0.75;100.00
74798;BME280;63326;45.088;7.658;2024-01-27T02:15:50;99873.22;;;-0.77;100.00
74798;BME280;63326;45.088;7.658;2024-01-27T02:18:17;99864.69;;;-0.66;100.00
74798;BME280;63326;45.088;7.658;2024-01-27T02:20:45;99877.09;;;-0.53;100.00
74798;BME280;63326;45.088;7.658;2024-01-27T02:23:13;99865.34;;;-0.47;100.00
74798;BME280;63326;45.088;7.658;2024-01-27T02:25:40;99849.53;;;-0.63;100.00
74798;BME280;63326;45.088;7.658;2024-01-27T02:28:08;99842.56;;;-0.64;100.00
74798;BME280;63326;45.088;7.658;2024-01-27T02:30:36;99861.53;;;-0.57;100.00
74798;BME280;63326;45.088;7.658;2024-01-27T02:33:07;99856.94;;;-0.39;100.00
74798;BME280;63326;45.088;7.658;2024-01-27T02:35:34;99845.50;;;-0.54;100.00
74798;BME280;63326;45.088;7.658;2024-01-27T02:38:03;99874.72;;;-0.57;100.00
74798;BME280;63326;45.088;7.658;2024-01-27T02:40:31;99869.59;;;-0.60;100.00
74798;BME280;63326;45.088;7.658;2024-01-27T02:42:58;99866.03;;;-0.59;100.00
74798;BME280;63326;45.088;7.658;2024-01-27T02:45:25;99867.81;;;-0.60;100.00
74798;BME280;63326;45.088;7.658;2024-01-27T02:47:55;99852.53;;;-0.69;100.00
74798;BME280;63326;45.088;7.658;2024-01-27T02:50:22;99852.59;;;-0.55;100.00
74798;BME280;63326;45.088;7.658;2024-01-27T02:52:48;99799.94;;;-0.72;100.00
74798;BME280;63326;45.088;7.658;2024-01-27T02:55:16;99811.56;;;-0.60;100.00
74798;BME280;63326;45.088;7.658;2024-01-27T02:57:48;99851.09;;;-0.45;100.00
74798;BME280;63326;45.088;7.658;2024-01-27T03:00:17;99851.84;;;-0.43;100.00
74798;BME280;63326;45.088;7.658;2024-01-27T03:02:45;99825.66;;;-0.46;100.00
74798;BME280;63326;45.088;7.658;2024-01-27T03:05:12;99857.94;;;-0.26;100.00
74798;BME280;63326;45.088;7.658;2024-01-27T03:07:41;99868.81;;;-0.17;100.00
74798;BME280;63326;45.088;7.658;2024-01-27T03:10:09;99822.72;;;-0.41;100.00
74798;BME280;63326;45.088;7.658;2024-01-27T03:12:40;99847.31;;;-0.10;100.00
74798;BME280;63326;45.088;7.658;2024-01-27T03:15:07;99859.41;;;-0.06;100.00
74798;BME280;63326;45.088;7.658;2024-01-27T03:17:34;99830.00;;;-0.30;100.00
74798;BME280;63326;45.088;7.658;2024-01-27T03:20:01;99867.13;;;-0.18;100.00
74798;BME280;63326;45.088;7.658;2024-01-27T03:22:32;99797.91;;;-0.67;100.00
74798;BME280;63326;45.088;7.658;2024-01-27T03:24:59;99837.47;;;-0.37;100.00
74798;BME280;63326;45.088;7.658;2024-01-27T03:27:27;99863.78;;;-0.21;100.00
74798;BME280;63326;45.088;7.658;2024-01-27T03:29:56;99874.59;;;0.19;100.00
74798;BME280;63326;45.088;7.658;2024-01-27T03:32:22;99832.72;;;-0.02;100.00
74798;BME280;63326;45.088;7.658;2024-01-27T03:34:49;99867.06;;;0.27;100.00
74798;BME280;63326;45.088;7.658;2024-01-27T03:37:17;99873.47;;;0.51;100.00
74798;BME280;63326;45.088;7.658;2024-01-27T03:39:44;99874.63;;;0.47;100.00
74798;BME280;63326;45.088;7.658;2024-01-27T03:42:10;99856.50;;;0.55;100.00
74798;BME280;63326;45.088;7.658;2024-01-27T03:44:38;99846.41;;;0.48;100.00
74798;BME280;63326;45.088;7.658;2024-01-27T03:47:05;99875.44;;;0.62;100.00
74798;BME280;63326;45.088;7.658;2024-01-27T03:49:31;99861.59;;;0.58;100.00
74798;BME280;63326;45.088;7.658;2024-01-27T03:51:58;99874.31;;;0.66;100.00
74798;BME280;63326;45.088;7.658;2024-01-27T03:54:26;99856.13;;;0.47;100.00
74798;BME280;63326;45.088;7.658;2024-01-27T03:56:54;99871.09;;;0.61;100.00
74798;BME280;63326;45.088;7.658;2024-01-27T03:59:22;99886.03;;;0.76;100.00
74798;BME280;63326;45.088;7.658;2024-01-27T04:01:49;99858.75;;;0.76;100.00
74798;BME280;63326;45.088;7.658;2024-01-27T04:04:16;99879.13;;;0.73;100.00
74798;BME280;63326;45.088;7.658;2024-01-27T04:06:43;99872.81;;;0.76;100.00
74798;BME280;63326;45.088;7.658;2024-01-27T04:09:10;99845.63;;;0.60;100.00
74798;BME280;63326;45.088;7.658;2024-01-27T04:11:40;99853.28;;;0.50;100.00
74798;BME280;63326;45.088;7.658;2024-01-27T04:14:08;99872.44;;;0.39;100.00
74798;BME280;63326;45.088;7.658;2024-01-27T04:16:35;99862.81;;;0.24;100.00
74798;BME280;63326;45.088;7.658;2024-01-27T04:19:02;99857.53;;;0.24;100.00
74798;BME280;63326;45.088;7.658;2024-01-27T04:21:32;99839.78;;;0.12;100.00
74798;BME280;63326;45.088;7.658;2024-01-27T04:23:59;99813.38;;;-0.17;100.00
74798;BME280;63326;45.088;7.658;2024-01-27T04:26:26;99860.16;;;0.10;100.00
74798;BME280;63326;45.088;7.658;2024-01-27T04:28:53;99892.34;;;0.17;100.00
74798;BME280;63326;45.088;7.658;2024-01-27T04:31:20;99889.59;;;0.18;100.00
74798;BME280;63326;45.088;7.658;2024-01-27T04:33:47;99824.28;;;-0.37;100.00
74798;BME280;63326;45.088;7.658;2024-01-27T04:36:14;99895.53;;;-0.07;100.00
74798;BME280;63326;45.088;7.658;2024-01-27T04:38:44;99897.47;;;-0.10;100.00
74798;BME280;63326;45.088;7.658;2024-01-27T04:41:11;99853.09;;;-0.48;100.00
74798;BME280;63326;45.088;7.658;2024-01-27T04:43:38;99891.19;;;-0.38;100.00
74798;BME280;63326;45.088;7.658;2024-01-27T04:46:05;99855.44;;;-0.74;100.00
74798;BME280;63326;45.088;7.658;2024-01-27T04:48:32;99856.19;;;-0.72;100.00
74798;BME280;63326;45.088;7.658;2024-01-27T04:51:00;99848.91;;;-1.14;100.00
74798;BME280;63326;45.088;7.658;2024-01-27T04:53:27;99896.63;;;-0.87;100.00
74798;BME280;63326;45.088;7.658;2024-01-27T04:55:55;99902.66;;;-0.85;100.00
74798;BME280;63326;45.088;7.658;2024-01-27T04:58:22;99833.78;;;-1.42;100.00
74798;BME280;63326;45.088;7.658;2024-01-27T05:00:51;99877.84;;;-1.28;100.00
74798;BME280;63326;45.088;7.658;2024-01-27T05:03:18;99914.06;;;-1.16;100.00
74798;BME280;63326;45.088;7.658;2024-01-27T05:05:46;99917.44;;;-1.30;100.00
74798;BME280;63326;45.088;7.658;2024-01-27T05:08:14;99906.09;;;-1.47;100.00
74798;BME280;63326;45.088;7.658;2024-01-27T05:10:42;99933.88;;;-1.42;100.00
74798;BME280;63326;45.088;7.658;2024-01-27T05:13:13;99894.84;;;-1.67;100.00
74798;BME280;63326;45.088;7.658;2024-01-27T05:15:40;99872.38;;;-1.74;100.00
74798;BME280;63326;45.088;7.658;2024-01-27T05:18:07;99911.59;;;-1.52;100.00
74798;BME280;63326;45.088;7.658;2024-01-27T05:20:38;99931.44;;;-1.45;100.00
74798;BME280;63326;45.088;7.658;2024-01-27T05:23:05;99903.41;;;-1.63;100.00
74798;BME280;63326;45.088;7.658;2024-01-27T05:25:32;99881.00;;;-1.70;100.00
74798;BME280;63326;45.088;7.658;2024-01-27T05:28:00;99887.13;;;-1.70;100.00
74798;BME280;63326;45.088;7.658;2024-01-27T05:30:28;99945.94;;;-1.53;100.00
74798;BME280;63326;45.088;7.658;2024-01-27T05:32:56;99928.63;;;-1.75;100.00
74798;BME280;63326;45.088;7.658;2024-01-27T05:35:23;99924.59;;;-1.82;100.00
74798;BME280;63326;45.088;7.658;2024-01-27T05:37:50;99942.34;;;-1.85;100.00
74798;BME280;63326;45.088;7.658;2024-01-27T05:40:20;99925.69;;;-2.03;100.00
74798;BME280;63326;45.088;7.658;2024-01-27T05:42:47;99961.94;;;-1.74;100.00
74798;BME280;63326;45.088;7.658;2024-01-27T05:45:17;99920.91;;;-1.95;100.00
74798;BME280;63326;45.088;7.658;2024-01-27T05:47:44;99952.03;;;-1.86;100.00
74798;BME280;63326;45.088;7.658;2024-01-27T05:50:11;99968.00;;;-1.89;100.00
74798;BME280;63326;45.088;7.658;2024-01-27T05:52:39;99912.41;;;-2.18;100.00
74798;BME280;63326;45.088;7.658;2024-01-27T05:55:09;99988.19;;;-1.90;100.00
74798;BME280;63326;45.088;7.658;2024-01-27T05:57:38;99977.38;;;-2.01;100.00
74798;BME280;63326;45.088;7.658;2024-01-27T06:00:06;99987.72;;;-1.98;100.00
74798;BME280;63326;45.088;7.658;2024-01-27T06:02:34;99989.75;;;-1.85;100.00
74798;BME280;63326;45.088;7.658;2024-01-27T06:05:06;99938.56;;;-2.32;100.00
74798;BME280;63326;45.088;7.658;2024-01-27T06:07:37;99942.19;;;-2.17;100.00
74798;BME280;63326;45.088;7.658;2024-01-27T06:10:09;99958.63;;;-2.12;100.00
74798;BME280;63326;45.088;7.658;2024-01-27T06:12:41;99938.63;;;-2.33;100.00
74798;BME280;63326;45.088;7.658;2024-01-27T06:15:08;99973.25;;;-2.06;100.00
74798;BME280;63326;45.088;7.658;2024-01-27T06:17:40;99998.78;;;-1.56;100.00
74798;BME280;63326;45.088;7.658;2024-01-27T06:20:08;99945.16;;;-1.89;100.00
74798;BME280;63326;45.088;7.658;2024-01-27T06:22:36;99956.44;;;-1.87;100.00
74798;BME280;63326;45.088;7.658;2024-01-27T06:25:03;99973.16;;;-1.70;100.00
74798;BME280;63326;45.088;7.658;2024-01-27T06:27:30;99957.97;;;-1.82;100.00
74798;BME280;63326;45.088;7.658;2024-01-27T06:29:58;100020.63;;;-1.54;100.00
74798;BME280;63326;45.088;7.658;2024-01-27T06:32:25;99974.88;;;-1.87;100.00
74798;BME280;63326;45.088;7.658;2024-01-27T06:34:54;100019.00;;;-1.57;100.00
74798;BME280;63326;45.088;7.658;2024-01-27T06:37:21;100000.44;;;-1.71;100.00
74798;BME280;63326;45.088;7.658;2024-01-27T06:39:50;100014.13;;;-1.65;100.00
74798;BME280;63326;45.088;7.658;2024-01-27T06:42:16;100026.53;;;-1.49;100.00
74798;BME280;63326;45.088;7.658;2024-01-27T06:44:44;100018.00;;;-1.72;100.00
74798;BME280;63326;45.088;7.658;2024-01-27T06:47:14;100025.44;;;-1.80;100.00
74798;BME280;63326;45.088;7.658;2024-01-27T06:49:44;100017.28;;;-1.93;100.00
74798;BME280;63326;45.088;7.658;2024-01-27T06:52:14;100034.09;;;-1.95;100.00
74798;BME280;63326;45.088;7.658;2024-01-27T06:54:40;100000.72;;;-1.95;100.00
74798;BME280;63326;45.088;7.658;2024-01-27T06:57:22;100013.91;;;-1.60;100.00
74798;BME280;63326;45.088;7.658;2024-01-27T06:59:53;100032.94;;;-1.55;100.00
74798;BME280;63326;45.088;7.658;2024-01-27T07:02:23;99995.00;;;-1.68;100.00
74798;BME280;63326;45.088;7.658;2024-01-27T07:04:50;100031.47;;;-1.43;100.00
74798;BME280;63326;45.088;7.658;2024-01-27T07:07:22;100043.31;;;-1.35;100.00
74798;BME280;63326;45.088;7.658;2024-01-27T07:09:51;100049.81;;;-1.24;100.00
74798;BME280;63326;45.088;7.658;2024-01-27T07:12:18;100036.09;;;-1.31;100.00
74798;BME280;63326;45.088;7.658;2024-01-27T07:14:46;100055.09;;;-1.24;100.00
74798;BME280;63326;45.088;7.658;2024-01-27T07:17:23;100069.66;;;-1.17;100.00
74798;BME280;63326;45.088;7.658;2024-01-27T07:19:51;100056.59;;;-1.03;100.00
74798;BME280;63326;45.088;7.658;2024-01-27T07:22:26;100052.22;;;-0.87;100.00
74798;BME280;63326;45.088;7.658;2024-01-27T07:24:53;100066.47;;;-0.58;100.00
74798;BME280;63326;45.088;7.658;2024-01-27T07:27:24;100062.03;;;-0.42;100.00
74798;BME280;63326;45.088;7.658;2024-01-27T07:29:53;100069.69;;;-0.05;100.00
74798;BME280;63326;45.088;7.658;2024-01-27T07:32:20;100057.91;;;0.16;100.00
74798;BME280;63326;45.088;7.658;2024-01-27T07:34:47;100073.16;;;0.71;100.00
74798;BME280;63326;45.088;7.658;2024-01-27T07:37:14;100036.75;;;1.19;100.00
74798;BME280;63326;45.088;7.658;2024-01-27T07:39:42;100009.09;;;1.51;100.00
74798;BME280;63326;45.088;7.658;2024-01-27T07:42:10;100058.81;;;2.41;100.00
74798;BME280;63326;45.088;7.658;2024-01-27T07:44:39;100073.28;;;3.52;100.00
74798;BME280;63326;45.088;7.658;2024-01-27T07:47:07;100058.38;;;4.58;100.00
74798;BME280;63326;45.088;7.658;2024-01-27T07:49:38;100043.28;;;5.16;93.60
74798;BME280;63326;45.088;7.658;2024-01-27T07:52:05;100064.91;;;5.89;85.48
74798;BME280;63326;45.088;7.658;2024-01-27T07:54:38;100051.13;;;6.28;85.30
74798;BME280;63326;45.088;7.658;2024-01-27T07:57:09;100050.75;;;6.95;78.40
74798;BME280;63326;45.088;7.658;2024-01-27T07:59:38;100065.34;;;7.63;74.02
74798;BME280;63326;45.088;7.658;2024-01-27T08:02:04;100067.00;;;8.14;71.06
74798;BME280;63326;45.088;7.658;2024-01-27T08:04:35;100052.53;;;8.65;68.12
74798;BME280;63326;45.088;7.658;2024-01-27T08:07:03;100043.19;;;8.88;70.15
74798;BME280;63326;45.088;7.658;2024-01-27T08:09:38;100070.31;;;9.69;63.33
74798;BME280;63326;45.088;7.658;2024-01-27T08:12:10;100057.81;;;9.87;65.60
74798;BME280;63326;45.088;7.658;2024-01-27T08:14:37;100074.13;;;10.21;67.61
74798;BME280;63326;45.088;7.658;2024-01-27T08:17:07;100039.69;;;10.88;63.55
74798;BME280;63326;45.088;7.658;2024-01-27T08:19:35;100050.69;;;11.63;57.30
74798;BME280;63326;45.088;7.658;2024-01-27T08:22:02;100044.13;;;12.08;55.41
74798;BME280;63326;45.088;7.658;2024-01-27T08:24:36;100074.09;;;12.13;58.56
74798;BME280;63326;45.088;7.658;2024-01-27T08:27:07;100064.13;;;12.88;54.41
74798;BME280;63326;45.088;7.658;2024-01-27T08:29:35;100053.97;;;13.86;49.19
74798;BME280;63326;45.088;7.658;2024-01-27T08:32:02;100068.53;;;14.39;47.46
74798;BME280;63326;45.088;7.658;2024-01-27T08:34:30;100047.97;;;14.61;45.61
74798;BME280;63326;45.088;7.658;2024-01-27T08:37:01;100060.41;;;14.70;46.59
74798;BME280;63326;45.088;7.658;2024-01-27T08:39:29;100067.38;;;14.88;47.67
74798;BME280;63326;45.088;7.658;2024-01-27T08:42:03;100069.56;;;15.74;42.51
74798;BME280;63326;45.088;7.658;2024-01-27T08:44:30;100082.41;;;16.16;41.16
74798;BME280;63326;45.088;7.658;2024-01-27T08:46:57;100076.38;;;15.99;41.20
74798;BME280;63326;45.088;7.658;2024-01-27T08:49:29;100079.47;;;15.96;41.90
74798;BME280;63326;45.088;7.658;2024-01-27T08:51:57;100071.88;;;16.07;42.47
74798;BME280;63326;45.088;7.658;2024-01-27T08:54:27;100072.72;;;15.92;43.44
74798;BME280;63326;45.088;7.658;2024-01-27T08:56:54;100060.09;;;17.49;39.42
74798;BME280;63326;45.088;7.658;2024-01-27T08:59:21;100072.72;;;17.98;38.26
74798;BME280;63326;45.088;7.658;2024-01-27T09:01:54;100063.97;;;18.09;38.06
74798;BME280;63326;45.088;7.658;2024-01-27T09:04:24;100078.47;;;18.23;37.36
74798;BME280;63326;45.088;7.658;2024-01-27T09:06:51;100075.66;;;17.96;38.92
74798;BME280;63326;45.088;7.658;2024-01-27T09:09:18;100077.13;;;18.60;37.67
74798;BME280;63326;45.088;7.658;2024-01-27T09:11:48;100060.44;;;19.42;35.88
74798;BME280;63326;45.088;7.658;2024-01-27T09:14:16;100070.34;;;20.08;34.88
74798;BME280;63326;45.088;7.658;2024-01-27T09:16:44;100074.47;;;19.66;36.18
74798;BME280;63326;45.088;7.658;2024-01-27T09:19:13;100045.34;;;20.18;34.24
74798;BME280;63326;45.088;7.658;2024-01-27T09:21:45;100070.69;;;20.63;33.96
74798;BME280;63326;45.088;7.658;2024-01-27T09:24:14;100063.66;;;21.05;33.09
74798;BME280;63326;45.088;7.658;2024-01-27T09:27:04;100071.06;;;21.30;31.37
74798;BME280;63326;45.088;7.658;2024-01-27T09:29:31;100046.38;;;20.62;32.66
74798;BME280;63326;45.088;7.658;2024-01-27T09:32:01;100051.06;;;20.48;33.58
74798;BME280;63326;45.088;7.658;2024-01-27T09:34:32;100038.81;;;20.25;34.05
74798;BME280;63326;45.088;7.658;2024-01-27T09:37:01;100048.91;;;21.20;33.09
74798;BME280;63326;45.088;7.658;2024-01-27T09:39:28;100061.25;;;21.65;31.69
74798;BME280;63326;45.088;7.658;2024-01-27T09:41:56;100067.84;;;21.58;32.23
74798;BME280;63326;45.088;7.658;2024-01-27T09:44:27;100065.13;;;22.31;30.84
74798;BME280;63326;45.088;7.658;2024-01-27T09:46:57;100068.66;;;22.20;30.51
74798;BME280;63326;45.088;7.658;2024-01-27T09:49:26;100069.94;;;22.66;29.54
74798;BME280;63326;45.088;7.658;2024-01-27T09:51:55;100051.38;;;21.83;30.98
74798;BME280;63326;45.088;7.658;2024-01-27T09:54:23;100056.50;;;21.79;30.99
74798;BME280;63326;45.088;7.658;2024-01-27T09:56:51;100061.38;;;21.95;30.25
74798;BME280;63326;45.088;7.658;2024-01-27T09:59:19;100075.09;;;22.07;29.83
74798;BME280;63326;45.088;7.658;2024-01-27T10:01:52;100052.47;;;21.82;29.59
74798;BME280;63326;45.088;7.658;2024-01-27T10:04:19;100056.75;;;21.09;30.39
74798;BME280;63326;45.088;7.658;2024-01-27T10:06:49;100074.84;;;20.72;31.11
74798;BME280;63326;45.088;7.658;2024-01-27T10:09:19;100072.13;;;21.72;30.14
74798;BME280;63326;45.088;7.658;2024-01-27T10:11:48;100086.06;;;21.46;29.62
74798;BME280;63326;45.088;7.658;2024-01-27T10:14:15;100074.97;;;20.84;30.70
74798;BME280;63326;45.088;7.658;2024-01-27T10:16:46;100083.47;;;21.07;30.62
74798;BME280;63326;45.088;7.658;2024-01-27T10:19:18;100073.16;;;21.03;30.49
74798;BME280;63326;45.088;7.658;2024-01-27T10:21:46;100067.09;;;21.26;31.00
74798;BME280;63326;45.088;7.658;2024-01-27T10:24:14;100072.19;;;21.22;30.64
74798;BME280;63326;45.088;7.658;2024-01-27T10:26:41;100057.13;;;21.38;30.50
74798;BME280;63326;45.088;7.658;2024-01-27T10:29:12;100061.31;;;21.40;30.57
74798;BME280;63326;45.088;7.658;2024-01-27T10:31:38;100057.81;;;20.77;31.57
74798;BME280;63326;45.088;7.658;2024-01-27T10:34:08;100048.47;;;21.16;31.08
74798;BME280;63326;45.088;7.658;2024-01-27T10:36:47;99956.94;;;20.32;31.24
74798;BME280;63326;45.088;7.658;2024-01-27T10:39:16;100059.44;;;20.84;31.14
74798;BME280;63326;45.088;7.658;2024-01-27T10:41:45;100052.59;;;21.00;31.42
74798;BME280;63326;45.088;7.658;2024-01-27T10:44:15;100046.66;;;21.10;30.86
74798;BME280;63326;45.088;7.658;2024-01-27T10:46:49;100042.81;;;20.86;30.64
74798;BME280;63326;45.088;7.658;2024-01-27T10:49:18;100023.81;;;19.96;31.42
74798;BME280;63326;45.088;7.658;2024-01-27T10:51:56;100036.50;;;20.29;31.31
74798;BME280;63326;45.088;7.658;2024-01-27T10:54:26;100047.09;;;20.75;30.91
74798;BME280;63326;45.088;7.658;2024-01-27T10:56:57;100051.94;;;20.42;31.56
74798;BME280;63326;45.088;7.658;2024-01-27T10:59:30;100039.66;;;20.26;32.02
74798;BME280;63326;45.088;7.658;2024-01-27T11:01:59;100037.31;;;20.36;30.84
74798;BME280;63326;45.088;7.658;2024-01-27T11:04:28;100037.16;;;20.18;31.43
74798;BME280;63326;45.088;7.658;2024-01-27T11:06:56;100004.50;;;19.47;32.42
74798;BME280;63326;45.088;7.658;2024-01-27T11:09:24;100017.06;;;19.54;32.44
74798;BME280;63326;45.088;7.658;2024-01-27T11:11:51;100003.16;;;19.69;31.95
74798;BME280;63326;45.088;7.658;2024-01-27T11:14:19;100017.09;;;19.99;31.26
74798;BME280;63326;45.088;7.658;2024-01-27T11:16:46;100013.06;;;19.57;31.86
74798;BME280;63326;45.088;7.658;2024-01-27T11:19:18;100023.41;;;18.95;32.53
74798;BME280;63326;45.088;7.658;2024-01-27T11:21:45;100022.75;;;19.06;32.39
74798;BME280;63326;45.088;7.658;2024-01-27T11:24:15;100008.66;;;18.50;33.60
74798;BME280;63326;45.088;7.658;2024-01-27T11:26:46;100013.31;;;18.69;32.92
74798;BME280;63326;45.088;7.658;2024-01-27T11:29:13;100016.06;;;18.82;33.14
74798;BME280;63326;45.088;7.658;2024-01-27T11:31:48;100006.97;;;18.36;33.99
74798;BME280;63326;45.088;7.658;2024-01-27T11:34:18;100003.84;;;18.32;33.90
74798;BME280;63326;45.088;7.658;2024-01-27T11:36:47;100002.50;;;18.08;34.47
74798;BME280;63326;45.088;7.658;2024-01-27T11:39:29;99991.75;;;17.80;35.17
74798;BME280;63326;45.088;7.658;2024-01-27T11:42:09;99987.78;;;17.48;35.88
74798;BME280;63326;45.088;7.658;2024-01-27T11:44:41;99982.88;;;17.24;36.27
74798;BME280;63326;45.088;7.658;2024-01-27T11:47:17;99991.50;;;17.06;36.57
74798;BME280;63326;45.088;7.658;2024-01-27T11:49:51;99991.13;;;16.81;37.13
74798;BME280;63326;45.088;7.658;2024-01-27T11:52:21;99983.25;;;16.43;38.15
74798;BME280;63326;45.088;7.658;2024-01-27T11:54:55;99993.69;;;16.25;38.66
74798;BME280;63326;45.088;7.658;2024-01-27T11:57:22;99973.00;;;15.81;38.85
74798;BME280;63326;45.088;7.658;2024-01-27T11:59:51;99978.16;;;15.76;37.41
74798;BME280;63326;45.088;7.658;2024-01-27T12:02:20;99970.84;;;15.62;38.33
74798;BME280;63326;45.088;7.658;2024-01-27T12:04:47;99990.38;;;15.57;38.65
74798;BME280;63326;45.088;7.658;2024-01-27T12:07:14;99961.91;;;15.32;39.21
74798;BME280;63326;45.088;7.658;2024-01-27T12:09:50;99988.50;;;15.43;39.16
74798;BME280;63326;45.088;7.658;2024-01-27T12:12:17;99984.97;;;15.42;39.17
74798;BME280;63326;45.088;7.658;2024-01-27T12:14:48;99965.28;;;15.34;38.93
74798;BME280;63326;45.088;7.658;2024-01-27T12:17:21;99986.09;;;15.48;39.35
74798;BME280;63326;45.088;7.658;2024-01-27T12:19:50;99991.88;;;15.45;39.13
74798;BME280;63326;45.088;7.658;2024-01-27T12:22:26;99972.53;;;15.33;38.38
74798;BME280;63326;45.088;7.658;2024-01-27T12:25:08;99970.03;;;15.32;37.66
74798;BME280;63326;45.088;7.658;2024-01-27T12:27:39;99948.84;;;15.21;38.34
74798;BME280;63326;45.088;7.658;2024-01-27T12:30:09;99975.53;;;15.38;39.33
74798;BME280;63326;45.088;7.658;2024-01-27T12:32:40;99970.41;;;15.29;39.74
74798;BME280;63326;45.088;7.658;2024-01-27T12:35:11;99968.94;;;15.26;38.90
74798;BME280;63326;45.088;7.658;2024-01-27T12:37:43;99954.91;;;15.23;38.29
74798;BME280;63326;45.088;7.658;2024-01-27T12:40:21;99960.63;;;15.28;39.08
74798;BME280;63326;45.088;7.658;2024-01-27T12:42:51;99951.09;;;15.32;39.08
74798;BME280;63326;45.088;7.658;2024-01-27T12:45:17;99944.94;;;15.38;38.61
74798;BME280;63326;45.088;7.658;2024-01-27T12:47:59;99949.97;;;15.41;38.79
74798;BME280;63326;45.088;7.658;2024-01-27T12:50:27;99941.41;;;15.37;38.46
74798;BME280;63326;45.088;7.658;2024-01-27T12:52:59;99945.00;;;15.45;37.76
74798;BME280;63326;45.088;7.658;2024-01-27T12:55:26;99944.44;;;15.49;37.39
74798;BME280;63326;45.088;7.658;2024-01-27T12:57:52;99938.00;;;15.50;36.55